Hauptseite
METAR-TAF:

METAR-TAF

Flughäfen :

Siegerlandflughafen

Siegen, Deutschland

Breite: 50-42-28N, Länge: 008-04-59E, Höhe: 602 m

Beobachtung

Neuester Wetterbericht von vor 12 Stunden und 42 Minuten, um 15:50 UTC
Wind 6 kt aus Süd
Temperatur 2°C
Luftfeuchtigkeit 87%
Luftdruck 1008 hPa
Sichtweite 10 km oder mehr
keine Wolken unter 1500 m und keine Kumulonimbus oder Gewitterwolken

METAR: EDGS 161550Z 19006KT CAVOK 02/M00 Q1008

Zeit: 05:32 (04:32 UTC)

Prognose

Neuester Wetterbericht von vor 14 Stunden und 32 Minuten, um 14:00 UTC
Gültige Prognose vom 16 um 15 UTC bis 16 um 24 UTC
Wind 6 kt aus Südwest
Sichtweite 10 km oder mehr
keine Wolken unter 1500 m und keine Kumulonimbus oder Gewitterwolken
Übergehend zu
vom 16 um 15 UTC bis 16 um 18 UTC
Wind 6 kt aus Süd/Südost

TAF: EDGS 161400Z 1615/1624 23006KT CAVOK BECMG 1615/1618 15006KT

Wetterbeobachtungen und Prognosen von mehr als 4000 Flughäfen (METAR und TAF Bericht).

Die verfügbaren Stationen werden durch gelbe und rote Markierungen auf der Karte dargestellt.

Führen Sie die Maus auf sie, um den Namen der Station zu sehen.

Darauf klicken, um die Beobachtung von Wetterbeobachtungen und Prognosen zu sehen.

Um die Karte zu ändern : klicken Sie auf den grünen Tasten mit einem schwarzen Kreuz Zum Vergrößern, auf den grünen Button mit einem Gedankenstrich zu verkleinern, oder auf die grünen Pfeile für benachbarte Karten.


METAR-TAF: